00:03
Airports
Links
Donate
Help keep this website running!
PayPal
Bitcoin
METAR
KSEA 162353Z 23009KT 10SM FEW040 SCT120 BKN250 15/08 A3016 RMK AO2 SLP219 T01500083 10167 20122 56008 $
Current Weather Conditions at KSEA
VFR 23:53:00 16-10-17
Automated station
Altimeter:30.16 hg
Temp:15.0°c 59°f
Dew point:8.3°c 46°f
Wind:9 knots, 10.4 mph, 5 m/s, from 230°
Visibility:10.0 statute miles
25000(BKN) Broken
12000(SCT) Scattered
4000(FEW) A few
Past METAR reports
VFR 22:53:00 16-10-17
Automated station
Altimeter:30.16 hg
Temp:15.0°c 59°f
Dew point:8.3°c 46°f
Wind:14 knots, 16.1 mph, 7 m/s, from 230°
Visibility:10.0 statute miles
25000(BKN) Broken
11000(BKN) Broken
4000(FEW) A few
KSEA 162253Z 23014KT 10SM FEW040 BKN110 BKN250 15/08 A3016 RMK AO2 SLP220 T01500083 $
VFR 21:53:00 16-10-17
Automated station
Altimeter:30.17 hg
Temp:15.6°c 59°f
Dew point:8.9°c 46°f
Wind:16 knots, 18.4 mph, 8 m/s, from 200°
Visibility:10.0 statute miles
25000(SCT) Scattered
12000(FEW) A few
4000(FEW) A few
KSEA 162153Z 20016KT 10SM FEW040 FEW120 SCT250 16/09 A3017 RMK AO2 SLP222 T01560089 $
VFR 20:53:00 16-10-17
Automated station
Altimeter:30.18 hg
Temp:15.6°c 59°f
Dew point:8.9°c 46°f
Wind:15 knots, 17.3 mph, 8 m/s, from 230°
Visibility:10.0 statute miles
20000(FEW) A few
12000(FEW) A few
2000(FEW) A few
KSEA 162053Z 23015G20KT 10SM FEW020 FEW120 FEW200 16/09 A3018 RMK AO2 SLP227 T01560089 56015 $
VFR 19:53:00 16-10-17
Automated station
Altimeter:30.19 hg
Temp:15.0°c 59°f
Dew point:8.3°c 46°f
Wind:9 knots, 10.4 mph, 5 m/s, from 200°
Visibility:10.0 statute miles
20000(FEW) A few
1000(FEW) A few
KSEA 161953Z 20009KT 10SM FEW010 FEW200 15/08 A3019 RMK AO2 SLP230 T01500083 $
VFR 18:53:00 16-10-17
Automated station
Altimeter:30.21 hg
Temp:13.9°c 55°f
Dew point:8.3°c 46°f
Wind:13 knots, 15 mph, 7 m/s, from 170°
Visibility:10.0 statute miles
15000(FEW) A few
800(FEW) A few
KSEA 161853Z 17013G18KT 10SM FEW008 FEW150 14/08 A3021 RMK AO2 SLP235 T01390083 $
TAF
KSEA 162330Z 1700/1806 19010G18KT P6SM FEW040 BKN120 BKN250 FM170300 21010G18KT P6SM SCT040 BKN100 OVC200 FM170900 20012G20KT P6SM VCSH BKN030 OVC045 FM171200 20013G22KT P6SM VCSH BKN020 OVC030 FM171600 23014G24KT P6SM -RA OVC020 FM172100 20008KT P6SM -SHRA BKN030
Forecast at KSEA
00:00 17-10-17 to 03:00 17-10-17
Wind:10 Knots from 190°
Visibility:6.21 statute miles
4000FEW A few
12000BKN Broken
25000BKN Broken
FM 03:00 17-10-17 to 09:00 17-10-17
Wind:10 Knots from 210°
Visibility:6.21 statute miles
4000SCT Scattered
10000BKN Broken
20000OVC Overcast
FM 09:00 17-10-17 to 12:00 17-10-17
VCSH
Wind:12 Knots from 200°
Visibility:6.21 statute miles
3000BKN Broken
4500OVC Overcast
FM 12:00 17-10-17 to 16:00 17-10-17
VCSH
Wind:13 Knots from 200°
Visibility:6.21 statute miles
2000BKN Broken
3000OVC Overcast
FM 16:00 17-10-17 to 21:00 17-10-17
-RA
Wind:14 Knots from 230°
Visibility:6.21 statute miles
2000OVC Overcast
FM 21:00 17-10-17 to 06:00 18-10-17
-SHRA
Wind:8 Knots from 200°
Visibility:6.21 statute miles
3000BKN Broken